Hauptseite
METAR-TAF:

METAR-TAF

Flughäfen :

Flughafen Sønderborg

Sønderborg, Dänemark

Breite: 54-58N, Länge: 009-47E, Höhe: 7 m

Beobachtung

Neuester Wetterbericht von vor 13 Minuten, um 17:50 UTC
Wind 3 kt aus Süd/Südost
Temperatur 5°C
Luftfeuchtigkeit 93%
Luftdruck 1002 hPa
Sichtweite 10 km oder mehr
Leichtregen,

METAR: EKSB 251750Z AUTO 16003KT 9999 -RA FEW016/// BKN026/// BKN069/// 05/04 Q1002

Zeit: 19:03 (18:03 UTC)

Prognose

Neuester Wetterbericht von vor 4 Stunden und 23 Minuten, um 13:40 UTC
Gültige Prognose vom 25 um 14 UTC bis 25 um 18 UTC
Wind 8 kt aus Süd
Sichtweite 10 km oder mehr
Durchbrochene Bewölkung in der Höhe von 1500 ft
Zeitweise
vom 25 um 14 UTC bis 25 um 18 UTC
Sichtweite: 4000 m
Durchbrochene Bewölkung in der Höhe von 900 ft
feuchter Dunst, Leichtregen,

TAF: EKSB 251340Z 2514/2518 17008KT 9999 BKN015 TEMPO 2514/2518 4000 BR -RA BKN009

Wetterbeobachtungen und Prognosen von mehr als 4000 Flughäfen (METAR und TAF Bericht).

Die verfügbaren Stationen werden durch gelbe und rote Markierungen auf der Karte dargestellt.

Führen Sie die Maus auf sie, um den Namen der Station zu sehen.

Darauf klicken, um die Beobachtung von Wetterbeobachtungen und Prognosen zu sehen.

Um die Karte zu ändern : klicken Sie auf den grünen Tasten mit einem schwarzen Kreuz Zum Vergrößern, auf den grünen Button mit einem Gedankenstrich zu verkleinern, oder auf die grünen Pfeile für benachbarte Karten.


METAR-TAF: